Time;durP1;ratioP1;P1;durP2;ratioP2;P2;SDS_P1;SDS_P2;PMS_P1;PMS_P2;Temp;Humidity;BMP_temperature;BMP_pressure;BME280_temperature;BME280_humidity;BME280_pressure;Samples;Min_cycle;Max_cycle;Signal;HPM_P1;HPM_P2
2022/05/21 00:01:31;;;;;;;11.73;5.30;;;;;;;;;;5050618;28;20025;-66
2022/05/21 00:03:56;;;;;;;17.20;6.33;;;;;;;;;;5053982;28;20423;-66
2022/05/21 00:06:21;;;;;;;18.23;5.55;;;;;;;;;;5044638;28;20783;-66
2022/05/21 00:08:46;;;;;;;15.23;5.88;;;;;;;;;;5053189;28;20020;-66
2022/05/21 00:11:12;;;;;;;12.82;5.50;;;;;;;;;;5044487;28;20397;-66
2022/05/21 00:13:38;;;;;;;12.52;5.68;;;;;;;;;;5048777;28;20272;-66
2022/05/21 00:16:05;;;;;;;11.50;5.10;;;;;;;;;;5042140;28;20056;-66
2022/05/21 00:18:30;;;;;;;16.05;5.32;;;;;;;;;;5048724;28;20032;-66
2022/05/21 00:20:56;;;;;;;12.07;6.05;;;;;;;;;;5050568;28;20013;-65
2022/05/21 00:23:29;;;;;;;18.40;5.07;;;;;;;;;;5048793;28;20029;-66
2022/05/21 00:25:57;;;;;;;13.02;5.70;;;;;;;;;;5047254;28;20279;-66
2022/05/21 00:28:22;;;;;;;17.38;6.35;;;;;;;;;;5052588;28;20036;-66
2022/05/21 00:30:47;;;;;;;9.77;5.63;;;;;;;;;;5045431;28;20017;-66
2022/05/21 00:33:12;;;;;;;16.63;6.93;;;;;;;;;;5057114;28;20410;-66
2022/05/21 00:35:38;;;;;;;14.00;6.25;;;;;;;;;;5050552;28;20216;-66
2022/05/21 00:38:03;;;;;;;11.43;6.10;;;;;;;;;;5050012;28;20155;-65
2022/05/21 00:40:29;;;;;;;13.02;6.32;;;;;;;;;;5041742;28;20124;-66
2022/05/21 00:42:54;;;;;;;12.45;6.53;;;;;;;;;;5045119;28;20207;-66
2022/05/21 00:45:19;;;;;;;14.50;6.80;;;;;;;;;;5049295;28;20078;-66
2022/05/21 00:47:45;;;;;;;11.57;6.70;;;;;;;;;;5044756;28;20916;-66
2022/05/21 00:50:11;;;;;;;15.23;6.88;;;;;;;;;;5046332;28;20290;-66
2022/05/21 00:52:38;;;;;;;17.90;7.60;;;;;;;;;;5044935;28;20029;-66
2022/05/21 00:55:10;;;;;;;20.08;7.53;;;;;;;;;;5049495;28;20019;-66
2022/05/21 00:57:40;;;;;;;14.93;8.10;;;;;;;;;;5050180;28;20028;-66
2022/05/21 01:00:10;;;;;;;16.75;9.95;;;;;;;;;;5049295;28;20039;-66
2022/05/21 01:02:47;;;;;;;18.50;8.77;;;;;;;;;;5045552;28;20027;-66
2022/05/21 01:05:13;;;;;;;22.95;9.45;;;;;;;;;;5046548;28;20037;-66
2022/05/21 01:07:40;;;;;;;18.88;9.05;;;;;;;;;;5044074;28;20021;-66
2022/05/21 01:10:06;;;;;;;16.10;8.98;;;;;;;;;;5048427;28;20070;-66
2022/05/21 01:12:33;;;;;;;15.38;9.48;;;;;;;;;;5047586;28;20033;-67
2022/05/21 01:15:01;;;;;;;22.55;8.88;;;;;;;;;;5049387;28;20048;-66
2022/05/21 01:17:26;;;;;;;16.90;10.10;;;;;;;;;;5044392;28;20031;-66
2022/05/21 01:19:54;;;;;;;17.67;9.03;;;;;;;;;;5045262;28;20029;-66
2022/05/21 01:22:24;;;;;;;21.15;9.70;;;;;;;;;;5049390;28;20286;-66
2022/05/21 01:24:49;;;;;;;20.47;10.77;;;;;;;;;;5047969;28;20587;-66
2022/05/21 01:27:14;;;;;;;22.60;10.03;;;;;;;;;;5051039;28;21087;-66
2022/05/21 01:29:39;;;;;;;20.93;10.07;;;;;;;;;;5054565;28;20329;-66
2022/05/21 01:32:05;;;;;;;22.73;10.40;;;;;;;;;;5039172;28;20287;-66
2022/05/21 01:34:30;;;;;;;22.08;9.70;;;;;;;;;;5052783;28;20051;-66
2022/05/21 01:36:56;;;;;;;19.02;9.95;;;;;;;;;;5044475;28;20061;-66
2022/05/21 01:39:21;;;;;;;19.77;9.48;;;;;;;;;;5047448;28;20275;-66
2022/05/21 01:41:46;;;;;;;17.43;8.90;;;;;;;;;;5040776;28;20083;-66
2022/05/21 01:46:56;;;;;;;19.25;10.13;;;;;;;;;;5047278;28;20035;-66
2022/05/21 01:49:21;;;;;;;22.38;10.23;;;;;;;;;;5042720;28;20027;-66
2022/05/21 01:51:46;;;;;;;21.85;11.43;;;;;;;;;;5048575;28;20017;-66
2022/05/21 01:54:11;;;;;;;18.30;10.47;;;;;;;;;;5047168;28;20079;-66
2022/05/21 01:56:36;;;;;;;21.00;9.50;;;;;;;;;;5043161;28;20341;-66
2022/05/21 01:59:01;;;;;;;22.37;11.37;;;;;;;;;;5052077;28;20377;-65
2022/05/21 02:01:27;;;;;;;30.35;11.75;;;;;;;;;;5053844;28;20566;-65
2022/05/21 02:03:52;;;;;;;24.65;11.05;;;;;;;;;;5052917;28;20052;-66
2022/05/21 02:06:17;;;;;;;27.57;11.27;;;;;;;;;;5050453;28;20032;-66
2022/05/21 02:08:43;;;;;;;20.13;10.83;;;;;;;;;;5047431;28;20284;-65
2022/05/21 02:11:08;;;;;;;18.73;10.27;;;;;;;;;;5054557;28;20263;-66
2022/05/21 02:13:33;;;;;;;22.23;9.60;;;;;;;;;;5050282;28;20028;-65
2022/05/21 02:15:58;;;;;;;21.55;10.73;;;;;;;;;;5047709;28;20834;-66
2022/05/21 02:18:24;;;;;;;29.60;10.93;;;;;;;;;;5050247;28;20033;-66
2022/05/21 02:20:50;;;;;;;30.33;11.68;;;;;;;;;;5052950;28;20501;-66
2022/05/21 02:23:15;;;;;;;21.23;10.10;;;;;;;;;;5053593;28;20041;-66
2022/05/21 02:25:40;;;;;;;24.55;10.85;;;;;;;;;;5049811;28;20083;-66
2022/05/21 02:28:06;;;;;;;21.55;8.80;;;;;;;;;;5047571;28;20017;-66
2022/05/21 02:30:31;;;;;;;18.05;8.60;;;;;;;;;;5053671;28;20028;-65
2022/05/21 02:32:56;;;;;;;15.90;7.00;;;;;;;;;;5050461;28;20610;-65
2022/05/21 02:35:21;;;;;;;20.60;8.30;;;;;;;;;;5045227;28;20268;-66
2022/05/21 02:40:30;;;;;;;21.05;8.32;;;;;;;;;;5049093;28;20731;-66
2022/05/21 02:42:55;;;;;;;20.98;9.43;;;;;;;;;;5048214;28;20048;-66
2022/05/21 02:45:22;;;;;;;15.60;6.90;;;;;;;;;;5051120;28;20028;-66
2022/05/21 02:47:48;;;;;;;11.80;6.00;;;;;;;;;;5053108;28;20021;-66
2022/05/21 02:50:15;;;;;;;17.85;6.78;;;;;;;;;;5046386;28;20503;-65
2022/05/21 02:52:40;;;;;;;10.20;5.45;;;;;;;;;;5053602;28;20477;-66
2022/05/21 02:55:06;;;;;;;15.20;5.38;;;;;;;;;;5042852;28;20053;-66
2022/05/21 02:57:31;;;;;;;12.77;4.57;;;;;;;;;;5052139;28;20489;-66
2022/05/21 02:59:59;;;;;;;12.27;5.27;;;;;;;;;;5054338;28;20031;-65
2022/05/21 03:02:25;;;;;;;9.77;4.00;;;;;;;;;;5048875;28;20640;-66
2022/05/21 03:04:50;;;;;;;12.70;4.93;;;;;;;;;;5043248;28;20009;-66
2022/05/21 03:07:15;;;;;;;9.57;4.30;;;;;;;;;;5049129;28;20390;-65
2022/05/21 03:12:24;;;;;;;10.52;3.08;;;;;;;;;;5052782;28;20402;-65
2022/05/21 03:14:49;;;;;;;16.25;3.78;;;;;;;;;;5039115;28;20526;-66
2022/05/21 03:17:15;;;;;;;7.43;3.13;;;;;;;;;;5051713;28;20041;-66
2022/05/21 03:19:40;;;;;;;12.77;3.22;;;;;;;;;;5044582;28;20342;-65
2022/05/21 03:22:05;;;;;;;10.88;3.20;;;;;;;;;;5047736;28;20017;-66
2022/05/21 03:24:31;;;;;;;7.65;2.72;;;;;;;;;;5051294;28;20053;-66
2022/05/21 03:26:56;;;;;;;12.30;2.78;;;;;;;;;;5048213;28;20024;-66
2022/05/21 03:29:22;;;;;;;8.00;2.90;;;;;;;;;;5041135;28;20100;-66
2022/05/21 03:31:47;;;;;;;12.05;2.95;;;;;;;;;;5051939;28;20100;-66
2022/05/21 03:34:12;;;;;;;13.17;2.60;;;;;;;;;;5043980;28;20123;-65
2022/05/21 03:36:37;;;;;;;9.55;2.47;;;;;;;;;;5056524;28;20278;-66
2022/05/21 03:39:03;;;;;;;12.70;1.95;;;;;;;;;;5072217;23;20062;-68
2022/05/21 03:41:29;;;;;;;11.80;2.90;;;;;;;;;;5049079;28;20025;-68
2022/05/21 03:43:55;;;;;;;9.57;2.72;;;;;;;;;;5051424;28;20445;-68
2022/05/21 03:46:20;;;;;;;7.55;2.58;;;;;;;;;;5052092;28;20021;-68
2022/05/21 03:48:46;;;;;;;10.68;2.20;;;;;;;;;;5050368;28;20099;-69
2022/05/21 03:51:11;;;;;;;6.18;2.40;;;;;;;;;;5050674;28;20040;-68
2022/05/21 03:53:36;;;;;;;11.75;2.28;;;;;;;;;;5051421;28;20092;-68
2022/05/21 03:56:02;;;;;;;11.40;2.28;;;;;;;;;;5050869;28;20024;-68
2022/05/21 03:58:28;;;;;;;12.80;2.67;;;;;;;;;;5049763;28;20036;-69
2022/05/21 04:00:53;;;;;;;7.78;2.03;;;;;;;;;;5050474;28;20048;-69
2022/05/21 04:03:19;;;;;;;7.28;2.20;;;;;;;;;;5050466;28;20029;-69
2022/05/21 04:05:44;;;;;;;12.10;3.65;;;;;;;;;;5050768;28;20070;-69
2022/05/21 04:08:10;;;;;;;8.70;2.22;;;;;;;;;;5050231;28;20092;-69
2022/05/21 04:10:35;;;;;;;10.20;2.58;;;;;;;;;;5049998;28;20369;-69
2022/05/21 04:13:00;;;;;;;9.98;3.05;;;;;;;;;;5050405;28;20465;-69
2022/05/21 04:15:26;;;;;;;16.33;3.30;;;;;;;;;;5051254;28;20029;-69
2022/05/21 04:17:51;;;;;;;13.93;5.60;;;;;;;;;;5048805;28;20356;-69
2022/05/21 04:20:17;;;;;;;19.92;8.18;;;;;;;;;;5049481;28;20020;-69
2022/05/21 04:22:42;;;;;;;21.40;10.27;;;;;;;;;;5050051;28;20020;-69
2022/05/21 04:25:08;;;;;;;20.80;10.23;;;;;;;;;;5032320;28;20032;-69
2022/05/21 04:27:34;;;;;;;16.75;6.22;;;;;;;;;;5048537;28;20025;-69
2022/05/21 04:29:59;;;;;;;16.63;5.97;;;;;;;;;;5050416;28;20088;-69
2022/05/21 04:32:24;;;;;;;4.68;1.85;;;;;;;;;;5046419;28;20101;-69
2022/05/21 04:34:50;;;;;;;8.82;2.25;;;;;;;;;;5050323;28;20024;-69
2022/05/21 04:37:15;;;;;;;10.50;2.42;;;;;;;;;;5050068;28;20283;-69
2022/05/21 04:39:40;;;;;;;11.27;2.15;;;;;;;;;;5048045;28;20039;-69
2022/05/21 04:42:05;;;;;;;18.33;2.00;;;;;;;;;;5049179;28;20469;-69
2022/05/21 04:44:31;;;;;;;3.90;1.60;;;;;;;;;;5049603;28;20279;-69
2022/05/21 04:46:57;;;;;;;9.15;2.10;;;;;;;;;;5048727;28;20017;-69
2022/05/21 04:49:22;;;;;;;13.35;1.80;;;;;;;;;;5046712;28;20009;-69
2022/05/21 04:51:47;;;;;;;13.60;1.97;;;;;;;;;;5051904;28;20371;-69
2022/05/21 04:54:13;;;;;;;7.60;2.00;;;;;;;;;;5050425;28;20272;-69
2022/05/21 04:56:38;;;;;;;13.38;2.58;;;;;;;;;;5045981;28;20033;-69
2022/05/21 04:59:04;;;;;;;6.13;1.65;;;;;;;;;;5043660;28;20025;-69
2022/05/21 05:01:30;;;;;;;14.00;2.30;;;;;;;;;;5047615;28;20037;-69
2022/05/21 05:03:55;;;;;;;9.23;1.83;;;;;;;;;;5033610;28;20021;-69
2022/05/21 05:06:20;;;;;;;8.23;2.00;;;;;;;;;;5047299;28;20389;-69
2022/05/21 05:08:45;;;;;;;16.10;3.33;;;;;;;;;;5047825;28;20029;-69
2022/05/21 05:11:10;;;;;;;10.07;2.33;;;;;;;;;;5048787;28;20354;-69
2022/05/21 05:13:36;;;;;;;17.50;2.40;;;;;;;;;;5047331;28;20287;-69
2022/05/21 05:16:01;;;;;;;15.20;2.70;;;;;;;;;;5047492;28;20301;-69
2022/05/21 05:18:30;;;;;;;12.85;2.42;;;;;;;;;;5047709;28;20079;-71
2022/05/21 05:20:55;;;;;;;5.57;2.25;;;;;;;;;;5044845;28;20021;-71
2022/05/21 05:23:21;;;;;;;8.43;2.55;;;;;;;;;;5044560;28;20500;-71
2022/05/21 05:25:46;;;;;;;13.95;3.15;;;;;;;;;;5048178;28;20192;-71
2022/05/21 05:28:13;;;;;;;12.05;2.45;;;;;;;;;;5030636;28;20021;-71
2022/05/21 05:30:38;;;;;;;8.93;2.08;;;;;;;;;;5030415;28;20082;-71
2022/05/21 05:33:03;;;;;;;8.88;2.53;;;;;;;;;;5044329;28;20059;-69
2022/05/21 05:35:28;;;;;;;7.63;2.70;;;;;;;;;;5047616;28;20375;-70
2022/05/21 05:37:53;;;;;;;15.60;2.50;;;;;;;;;;5044948;28;20267;-70
2022/05/21 05:40:19;;;;;;;11.90;4.05;;;;;;;;;;5038987;28;20144;-71
2022/05/21 05:42:45;;;;;;;11.13;2.92;;;;;;;;;;5043408;28;20021;-70
2022/05/21 05:45:11;;;;;;;14.48;2.72;;;;;;;;;;5047184;28;20416;-70
2022/05/21 05:47:36;;;;;;;10.65;2.38;;;;;;;;;;5043156;28;20028;-72
2022/05/21 05:50:02;;;;;;;10.33;2.87;;;;;;;;;;5049578;28;20018;-70
2022/05/21 05:52:28;;;;;;;13.82;3.33;;;;;;;;;;5035816;28;20873;-70
2022/05/21 05:54:53;;;;;;;10.20;3.72;;;;;;;;;;5046911;28;20055;-72
2022/05/21 05:57:18;;;;;;;19.25;3.90;;;;;;;;;;5047482;28;20454;-70
2022/05/21 05:59:50;;;;;;;16.83;3.45;;;;;;;;;;5047366;28;20193;-71
2022/05/21 06:04:59;;;;;;;14.48;4.45;;;;;;;;;;5047375;28;20063;-71
2022/05/21 06:07:24;;;;;;;13.00;4.55;;;;;;;;;;5045952;28;20099;-70
2022/05/21 06:09:50;;;;;;;17.67;5.30;;;;;;;;;;5040684;28;20056;-70
2022/05/21 06:12:15;;;;;;;12.90;4.47;;;;;;;;;;5037294;28;20260;-70
2022/05/21 06:14:41;;;;;;;16.50;4.35;;;;;;;;;;5042555;28;20022;-70
2022/05/21 06:17:07;;;;;;;13.82;4.13;;;;;;;;;;5036472;28;20025;-70
2022/05/21 06:19:32;;;;;;;18.05;4.20;;;;;;;;;;5046039;28;20017;-69
2022/05/21 06:21:58;;;;;;;16.03;5.43;;;;;;;;;;5043900;28;20474;-69
2022/05/21 06:24:23;;;;;;;15.57;4.50;;;;;;;;;;5045590;28;20278;-69
2022/05/21 06:26:49;;;;;;;16.57;4.63;;;;;;;;;;5046558;28;20066;-69
2022/05/21 06:29:14;;;;;;;21.77;4.78;;;;;;;;;;5048783;28;20279;-70
2022/05/21 06:31:39;;;;;;;20.73;4.00;;;;;;;;;;5057404;28;20083;-70
2022/05/21 06:34:04;;;;;;;17.93;4.20;;;;;;;;;;5054445;28;20240;-71
2022/05/21 06:36:29;;;;;;;14.80;4.70;;;;;;;;;;5052919;28;20089;-71
2022/05/21 06:38:55;;;;;;;21.83;4.10;;;;;;;;;;5059647;28;20349;-70
2022/05/21 06:41:21;;;;;;;12.07;3.38;;;;;;;;;;5049512;28;20032;-70
2022/05/21 06:43:46;;;;;;;20.42;6.32;;;;;;;;;;5052778;28;20462;-70
2022/05/21 06:46:11;;;;;;;19.70;5.32;;;;;;;;;;5050614;28;20053;-70
2022/05/21 06:48:36;;;;;;;20.80;5.07;;;;;;;;;;5049580;28;20029;-69
2022/05/21 06:51:05;;;;;;;15.17;4.73;;;;;;;;;;5050413;28;20434;-70
2022/05/21 06:53:31;;;;;;;14.82;4.05;;;;;;;;;;5046747;28;20307;-70
2022/05/21 06:55:57;;;;;;;20.52;4.90;;;;;;;;;;5047609;28;20071;-70
2022/05/21 06:58:22;;;;;;;14.52;4.97;;;;;;;;;;5050825;28;20052;-70
2022/05/21 07:00:47;;;;;;;18.30;5.88;;;;;;;;;;5048620;28;20065;-69
2022/05/21 07:03:13;;;;;;;15.80;5.72;;;;;;;;;;5037882;28;20036;-69
2022/05/21 07:08:25;;;;;;;36.75;6.95;;;;;;;;;;5049600;28;20362;-70
2022/05/21 07:10:51;;;;;;;16.35;5.28;;;;;;;;;;5057532;28;20017;-70
2022/05/21 07:13:17;;;;;;;22.30;6.70;;;;;;;;;;5048698;28;20021;-70
2022/05/21 07:15:42;;;;;;;20.15;6.95;;;;;;;;;;5047729;28;20389;-70
2022/05/21 07:18:08;;;;;;;19.05;5.50;;;;;;;;;;5049264;28;20444;-70
2022/05/21 07:20:33;;;;;;;18.35;5.38;;;;;;;;;;5046828;28;20029;-70
2022/05/21 07:23:00;;;;;;;13.93;5.32;;;;;;;;;;5049163;28;20032;-70
2022/05/21 07:25:26;;;;;;;21.75;5.43;;;;;;;;;;5047567;28;20029;-70
2022/05/21 07:27:52;;;;;;;11.77;4.68;;;;;;;;;;5047774;28;20040;-70
2022/05/21 07:30:17;;;;;;;18.02;5.55;;;;;;;;;;5049409;28;20020;-70
2022/05/21 07:32:44;;;;;;;16.95;5.93;;;;;;;;;;5046507;28;20037;-70
2022/05/21 07:35:11;;;;;;;15.75;4.75;;;;;;;;;;5048817;28;20029;-70
2022/05/21 07:37:36;;;;;;;16.58;4.65;;;;;;;;;;5048370;28;20055;-71
2022/05/21 07:40:02;;;;;;;15.23;3.88;;;;;;;;;;5047295;28;20069;-69
2022/05/21 07:42:27;;;;;;;14.20;4.05;;;;;;;;;;5048508;28;20052;-69
2022/05/21 07:44:53;;;;;;;18.90;5.38;;;;;;;;;;5050041;28;20028;-69
2022/05/21 07:47:22;;;;;;;17.67;4.85;;;;;;;;;;5050769;28;20438;-70
2022/05/21 07:49:48;;;;;;;22.75;6.45;;;;;;;;;;5048406;28;20040;-70
2022/05/21 07:52:13;;;;;;;15.35;5.47;;;;;;;;;;5049636;28;20452;-70
2022/05/21 07:54:38;;;;;;;16.52;4.95;;;;;;;;;;5046126;28;20021;-70
2022/05/21 07:57:04;;;;;;;14.10;4.57;;;;;;;;;;5051620;28;20016;-70
2022/05/21 07:59:29;;;;;;;16.13;4.85;;;;;;;;;;5049997;28;20074;-70
2022/05/21 08:01:54;;;;;;;17.10;5.15;;;;;;;;;;5050106;28;20520;-71
2022/05/21 08:04:20;;;;;;;24.13;5.00;;;;;;;;;;5051581;28;20028;-70
2022/05/21 08:06:45;;;;;;;18.63;5.53;;;;;;;;;;5053728;28;20283;-69
2022/05/21 08:09:10;;;;;;;18.08;5.97;;;;;;;;;;5046174;28;20271;-70
2022/05/21 08:11:37;;;;;;;22.95;5.65;;;;;;;;;;5049933;28;20480;-71
2022/05/21 08:14:02;;;;;;;26.95;5.82;;;;;;;;;;5050335;28;20708;-69
2022/05/21 08:16:29;;;;;;;12.55;3.45;;;;;;;;;;5036081;28;20072;-71
2022/05/21 08:18:54;;;;;;;18.98;3.25;;;;;;;;;;5050121;28;20078;-69
2022/05/21 08:21:19;;;;;;;15.00;3.35;;;;;;;;;;5050284;28;20095;-70
2022/05/21 08:29:12;;;;;;;14.63;3.53;;;;;;;;;;5049437;28;20138;-70
2022/05/21 08:31:37;;;;;;;15.97;3.50;;;;;;;;;;5048341;28;20040;-70
2022/05/21 08:34:02;;;;;;;14.20;2.47;;;;;;;;;;5046588;28;20278;-70
2022/05/21 08:36:28;;;;;;;17.10;3.50;;;;;;;;;;5050357;28;20397;-70
2022/05/21 08:38:53;;;;;;;13.45;3.28;;;;;;;;;;5049435;28;20116;-69
2022/05/21 08:41:20;;;;;;;17.02;3.42;;;;;;;;;;5049628;28;20052;-71
2022/05/21 08:43:48;;;;;;;17.27;3.60;;;;;;;;;;5051722;28;20089;-70
2022/05/21 08:46:22;;;;;;;15.38;3.83;;;;;;;;;;5048112;28;20024;-70
2022/05/21 08:48:52;;;;;;;16.98;3.45;;;;;;;;;;5049690;28;20016;-70
2022/05/21 08:51:18;;;;;;;17.70;3.40;;;;;;;;;;5049363;28;20029;-69
2022/05/21 08:53:46;;;;;;;16.38;4.03;;;;;;;;;;5050232;28;20028;-70
2022/05/21 08:56:11;;;;;;;13.55;4.20;;;;;;;;;;5048868;28;20040;-70
2022/05/21 08:58:37;;;;;;;13.63;3.22;;;;;;;;;;5049088;28;20024;-71
2022/05/21 09:01:03;;;;;;;19.80;3.92;;;;;;;;;;5048128;28;20024;-70
2022/05/21 09:03:28;;;;;;;15.15;4.28;;;;;;;;;;5046934;28;20661;-69
2022/05/21 09:06:08;;;;;;;19.73;4.28;;;;;;;;;;5043646;28;20021;-70
2022/05/21 09:08:43;;;;;;;11.23;3.35;;;;;;;;;;5043850;28;20024;-71
2022/05/21 09:11:26;;;;;;;13.05;3.30;;;;;;;;;;5046822;28;20048;-70
2022/05/21 09:14:03;;;;;;;16.55;4.15;;;;;;;;;;5043980;28;20017;-70
2022/05/21 09:19:19;;;;;;;20.55;3.53;;;;;;;;;;5048251;28;20032;-71
2022/05/21 09:21:47;;;;;;;17.85;2.80;;;;;;;;;;5047498;28;20029;-70
2022/05/21 09:24:30;;;;;;;11.07;2.95;;;;;;;;;;5050014;28;20488;-71
2022/05/21 09:26:56;;;;;;;14.02;2.33;;;;;;;;;;5050198;28;20347;-71
2022/05/21 09:29:25;;;;;;;12.05;3.58;;;;;;;;;;5048460;28;20437;-69
2022/05/21 09:31:53;;;;;;;14.02;2.97;;;;;;;;;;5050027;28;20020;-70
2022/05/21 09:34:29;;;;;;;12.95;2.92;;;;;;;;;;5049553;28;20086;-70
2022/05/21 09:36:55;;;;;;;13.25;3.20;;;;;;;;;;5042132;28;20021;-71
2022/05/21 09:45:46;;;;;;;18.05;3.00;;;;;;;;;;4992082;28;20041;-90
2022/05/21 09:48:45;;;;;;;12.13;2.97;;;;;;;;;;5000329;28;20026;-94
2022/05/21 09:54:45;;;;;;;12.70;3.33;;;;;;;;;;5004039;28;20054;-89
2022/05/21 10:03:49;;;;;;;14.80;3.85;;;;;;;;;;4961427;29;20586;-92
2022/05/21 10:12:04;;;;;;;27.13;2.65;;;;;;;;;;5050331;28;20039;-66
2022/05/21 10:14:37;;;;;;;13.07;2.72;;;;;;;;;;5049092;28;20520;-66
2022/05/21 10:17:05;;;;;;;10.65;2.38;;;;;;;;;;5050139;28;20063;-66
2022/05/21 10:19:33;;;;;;;17.38;3.30;;;;;;;;;;5063481;28;20104;-66
2022/05/21 10:22:07;;;;;;;16.98;3.40;;;;;;;;;;5073762;28;20094;-66
2022/05/21 10:24:38;;;;;;;8.77;1.90;;;;;;;;;;5073219;28;20017;-66
2022/05/21 10:27:15;;;;;;;10.88;3.38;;;;;;;;;;5073097;28;20016;-66
2022/05/21 10:29:50;;;;;;;7.50;2.05;;;;;;;;;;5073372;28;20499;-68
2022/05/21 10:32:19;;;;;;;17.30;2.60;;;;;;;;;;5062885;28;20028;-68
2022/05/21 10:34:53;;;;;;;11.52;2.40;;;;;;;;;;5071592;28;20043;-66
2022/05/21 10:37:27;;;;;;;11.88;3.58;;;;;;;;;;5073339;28;20411;-68
2022/05/21 10:40:07;;;;;;;9.93;2.60;;;;;;;;;;5055995;28;20032;-66
2022/05/21 10:42:50;;;;;;;11.18;2.97;;;;;;;;;;5052926;28;20017;-66
2022/05/21 10:45:18;;;;;;;11.75;3.25;;;;;;;;;;5058259;28;20029;-65
2022/05/21 10:47:52;;;;;;;18.38;3.05;;;;;;;;;;5068049;28;20024;-66
2022/05/21 10:50:36;;;;;;;15.95;3.97;;;;;;;;;;5063127;28;20024;-66
2022/05/21 10:53:10;;;;;;;9.93;3.22;;;;;;;;;;5060852;28;20376;-66
2022/05/21 10:55:44;;;;;;;10.40;2.80;;;;;;;;;;5071596;28;20078;-66
2022/05/21 10:58:27;;;;;;;11.40;2.63;;;;;;;;;;5072312;28;20055;-66
2022/05/21 11:01:01;;;;;;;12.07;3.13;;;;;;;;;;5072322;28;20020;-66
2022/05/21 11:03:36;;;;;;;17.05;3.20;;;;;;;;;;5072442;28;20020;-66
2022/05/21 11:06:01;;;;;;;12.07;3.28;;;;;;;;;;5072620;28;20469;-67
2022/05/21 11:08:32;;;;;;;10.87;2.97;;;;;;;;;;5061697;28;20175;-67
2022/05/21 11:11:03;;;;;;;10.70;3.03;;;;;;;;;;5052529;28;20785;-67
2022/05/21 11:13:37;;;;;;;12.57;3.08;;;;;;;;;;5052608;28;20017;-67
2022/05/21 11:16:08;;;;;;;13.40;3.97;;;;;;;;;;5052463;28;20079;-67
2022/05/21 11:18:36;;;;;;;9.02;2.55;;;;;;;;;;5056990;28;20016;-67
2022/05/21 11:21:03;;;;;;;13.82;3.05;;;;;;;;;;5072423;28;20396;-67
2022/05/21 11:23:43;;;;;;;12.07;2.72;;;;;;;;;;5072220;28;20059;-67
2022/05/21 11:26:27;;;;;;;11.05;2.60;;;;;;;;;;5072523;28;20473;-67
2022/05/21 11:28:56;;;;;;;8.95;2.28;;;;;;;;;;5072201;28;20027;-67
2022/05/21 11:37:24;;;;;;;11.13;2.80;;;;;;;;;;5059523;28;20078;-67
2022/05/21 11:39:50;;;;;;;13.68;2.80;;;;;;;;;;5058676;28;20020;-67
2022/05/21 11:42:17;;;;;;;12.70;3.67;;;;;;;;;;5069120;28;20395;-67
2022/05/21 11:44:59;;;;;;;14.70;4.45;;;;;;;;;;5068104;28;20025;-66
2022/05/21 11:47:33;;;;;;;10.15;2.97;;;;;;;;;;5065946;28;20092;-67
2022/05/21 11:49:59;;;;;;;13.10;4.53;;;;;;;;;;5065230;28;20357;-66
2022/05/21 11:52:27;;;;;;;12.05;3.53;;;;;;;;;;5068453;28;20103;-66
2022/05/21 11:54:52;;;;;;;12.73;2.90;;;;;;;;;;5069239;28;20426;-66
2022/05/21 11:57:44;;;;;;;11.50;2.28;;;;;;;;;;5068592;28;20017;-66
2022/05/21 12:00:33;;;;;;;5.68;2.35;;;;;;;;;;5067638;28;20099;-67
2022/05/21 12:02:58;;;;;;;7.10;2.55;;;;;;;;;;5064913;28;20036;-67
2022/05/21 12:05:40;;;;;;;8.63;2.47;;;;;;;;;;5068449;28;20469;-67
2022/05/21 12:08:14;;;;;;;11.75;3.80;;;;;;;;;;5067788;28;20082;-68
2022/05/21 12:11:02;;;;;;;12.52;3.47;;;;;;;;;;5066436;28;20143;-67
2022/05/21 12:13:33;;;;;;;10.13;2.42;;;;;;;;;;5070725;28;20024;-67
2022/05/21 12:15:59;;;;;;;10.82;3.28;;;;;;;;;;5064405;28;20055;-67
2022/05/21 12:18:41;;;;;;;12.45;3.00;;;;;;;;;;5071049;28;20021;-68
2022/05/21 12:21:09;;;;;;;14.82;3.13;;;;;;;;;;5068745;28;20033;-68
2022/05/21 12:23:35;;;;;;;12.35;2.53;;;;;;;;;;5068482;28;20028;-68
2022/05/21 12:26:12;;;;;;;8.38;2.28;;;;;;;;;;5070611;28;20380;-67
2022/05/21 12:28:41;;;;;;;16.83;2.97;;;;;;;;;;5066626;28;20025;-67
2022/05/21 12:31:09;;;;;;;12.97;2.57;;;;;;;;;;5069165;28;20009;-66
2022/05/21 12:33:45;;;;;;;12.32;2.63;;;;;;;;;;5067147;28;20112;-66
2022/05/21 12:36:32;;;;;;;15.40;2.90;;;;;;;;;;5064108;28;20032;-66
2022/05/21 12:39:00;;;;;;;15.25;3.42;;;;;;;;;;5066134;28;20045;-65
2022/05/21 12:41:27;;;;;;;8.77;3.10;;;;;;;;;;5066787;28;20438;-65
2022/05/21 12:43:53;;;;;;;10.95;2.90;;;;;;;;;;5058747;28;20469;-65
2022/05/21 12:46:33;;;;;;;10.65;2.63;;;;;;;;;;5068596;28;20182;-68
2022/05/21 12:49:01;;;;;;;9.90;2.63;;;;;;;;;;5070422;28;20016;-66
2022/05/21 12:51:30;;;;;;;11.93;2.55;;;;;;;;;;5069336;28;20028;-65
2022/05/21 12:53:55;;;;;;;9.57;3.03;;;;;;;;;;5066321;28;20301;-66
2022/05/21 12:56:24;;;;;;;12.88;2.72;;;;;;;;;;5060006;28;20397;-66
2022/05/21 12:59:04;;;;;;;13.13;3.00;;;;;;;;;;5069519;28;20016;-65
2022/05/21 13:01:31;;;;;;;10.60;2.50;;;;;;;;;;5059037;28;20043;-65
2022/05/21 13:03:57;;;;;;;7.93;2.05;;;;;;;;;;5063502;28;20297;-65
2022/05/21 13:06:24;;;;;;;8.07;2.55;;;;;;;;;;5066671;28;20461;-65
2022/05/21 13:08:52;;;;;;;12.80;2.58;;;;;;;;;;5066251;28;20101;-65
2022/05/21 13:11:19;;;;;;;6.10;2.17;;;;;;;;;;5070239;28;20092;-65
2022/05/21 13:13:46;;;;;;;14.27;2.35;;;;;;;;;;5064164;28;20020;-65
2022/05/21 13:16:18;;;;;;;9.77;2.92;;;;;;;;;;5067715;28;20511;-65
2022/05/21 13:18:49;;;;;;;9.18;2.85;;;;;;;;;;5056146;28;20385;-65
2022/05/21 13:21:33;;;;;;;12.02;2.60;;;;;;;;;;5065380;28;20024;-65
2022/05/21 13:24:17;;;;;;;21.17;3.88;;;;;;;;;;5066622;28;20024;-66
2022/05/21 13:26:42;;;;;;;11.63;2.78;;;;;;;;;;5057634;28;20033;-65
2022/05/21 13:29:22;;;;;;;9.30;2.60;;;;;;;;;;5059528;28;20020;-66
2022/05/21 13:31:48;;;;;;;10.52;2.50;;;;;;;;;;5068717;28;20027;-66
2022/05/21 13:34:15;;;;;;;9.70;2.13;;;;;;;;;;5069843;28;20013;-66
2022/05/21 13:36:44;;;;;;;11.10;2.63;;;;;;;;;;5070422;28;20109;-66
2022/05/21 13:39:13;;;;;;;7.45;2.65;;;;;;;;;;5063655;28;20381;-65
2022/05/21 13:41:40;;;;;;;6.10;2.08;;;;;;;;;;5067555;28;20028;-66
2022/05/21 13:44:07;;;;;;;8.48;2.25;;;;;;;;;;5069778;28;20024;-65
2022/05/21 13:46:34;;;;;;;9.10;1.70;;;;;;;;;;5067036;28;20036;-67
2022/05/21 13:49:01;;;;;;;11.20;2.75;;;;;;;;;;5066838;28;20023;-67
2022/05/21 13:51:28;;;;;;;8.82;2.30;;;;;;;;;;5068335;28;20496;-67
2022/05/21 13:53:54;;;;;;;6.78;1.60;;;;;;;;;;5066502;28;20019;-67
2022/05/21 13:56:22;;;;;;;6.43;2.50;;;;;;;;;;5073738;28;20023;-67
2022/05/21 13:59:01;;;;;;;9.05;2.28;;;;;;;;;;5071848;28;20020;-67
2022/05/21 14:01:30;;;;;;;12.05;3.05;;;;;;;;;;5068073;28;20498;-67
2022/05/21 14:04:04;;;;;;;6.65;2.17;;;;;;;;;;5061377;28;20068;-67
2022/05/21 14:06:31;;;;;;;8.25;2.60;;;;;;;;;;5068776;28;20024;-67
2022/05/21 14:08:57;;;;;;;8.63;1.90;;;;;;;;;;5071816;28;20169;-67
2022/05/21 14:11:23;;;;;;;10.25;2.92;;;;;;;;;;5073357;28;20532;-67
2022/05/21 14:14:03;;;;;;;12.00;2.47;;;;;;;;;;5069052;28;20028;-67
2022/05/21 14:16:28;;;;;;;;;;;;;;;;;;5068095;28;20066;-67
2022/05/21 14:19:12;;;;;;;11.47;2.47;;;;;;;;;;5071000;28;19939;-67
2022/05/21 14:21:58;;;;;;;7.15;2.60;;;;;;;;;;5071483;28;20333;-67
2022/05/21 14:24:25;;;;;;;7.80;2.30;;;;;;;;;;5073221;28;20032;-67
2022/05/21 14:26:54;;;;;;;16.20;2.85;;;;;;;;;;5072407;28;20066;-67
2022/05/21 14:29:32;;;;;;;19.70;2.78;;;;;;;;;;5070565;28;20016;-67
2022/05/21 14:32:33;;;;;;;6.90;2.63;;;;;;;;;;5067554;28;20383;-67
2022/05/21 14:35:10;;;;;;;10.80;2.95;;;;;;;;;;5045126;28;20063;-67
2022/05/21 14:37:35;;;;;;;6.35;3.03;;;;;;;;;;5068751;28;20044;-67
2022/05/21 14:40:01;;;;;;;13.90;3.10;;;;;;;;;;5064928;28;20385;-67
2022/05/21 14:42:28;;;;;;;7.32;2.30;;;;;;;;;;5072830;28;20146;-67
2022/05/21 14:44:53;;;;;;;9.05;2.72;;;;;;;;;;5063289;28;20092;-67
2022/05/21 14:52:52;;;;;;;11.40;2.15;;;;;;;;;;5052409;28;20397;-67
2022/05/21 14:55:21;;;;;;;10.88;2.30;;;;;;;;;;5055709;28;20105;-67
2022/05/21 14:57:47;;;;;;;5.85;2.60;;;;;;;;;;5071800;28;20035;-67
2022/05/21 15:00:13;;;;;;;9.83;2.73;;;;;;;;;;5065591;28;20029;-67
2022/05/21 15:02:38;;;;;;;9.40;2.55;;;;;;;;;;5070311;28;20251;-67
2022/05/21 15:05:04;;;;;;;6.50;2.10;;;;;;;;;;5064566;28;20025;-67
2022/05/21 15:07:30;;;;;;;8.75;2.70;;;;;;;;;;5066712;28;20020;-67
2022/05/21 15:09:56;;;;;;;8.90;2.67;;;;;;;;;;5067999;28;20016;-67
2022/05/21 15:12:21;;;;;;;14.27;3.35;;;;;;;;;;5063528;28;20020;-67
2022/05/21 15:14:46;;;;;;;9.85;2.20;;;;;;;;;;5065957;28;20016;-67
2022/05/21 15:17:11;;;;;;;7.93;2.27;;;;;;;;;;5067309;28;20436;-67
2022/05/21 15:19:37;;;;;;;9.13;1.83;;;;;;;;;;5061167;28;20355;-67
2022/05/21 15:22:06;;;;;;;10.13;2.35;;;;;;;;;;5061887;28;20278;-67
2022/05/21 15:24:32;;;;;;;8.47;1.87;;;;;;;;;;5072089;28;20024;-67
2022/05/21 15:26:57;;;;;;;7.30;2.05;;;;;;;;;;5070913;28;20275;-67
2022/05/21 15:29:22;;;;;;;14.57;2.97;;;;;;;;;;5067808;28;20538;-67
2022/05/21 15:31:47;;;;;;;5.63;2.13;;;;;;;;;;5067025;28;20021;-67
2022/05/21 15:34:13;;;;;;;8.30;2.22;;;;;;;;;;5067722;28;20278;-67